Time;durP1;ratioP1;P1;durP2;ratioP2;P2;SDS_P1;SDS_P2;PMS_P1;PMS_P2;Temp;Humidity;BMP_temperature;BMP_pressure;BME280_temperature;BME280_humidity;BME280_pressure;Samples;Min_cycle;Max_cycle;Signal;HPM_P1;HPM_P2
2023/08/17 00:02:13;;;;;;;10.20;7.50;;;;;;;23.45;63.70;99154.61;141041;1245;22395;-84
2023/08/17 00:05:14;;;;;;;9.70;7.10;;;;;;;23.41;63.85;99151.02;140427;1245;22407;-85
2023/08/17 00:08:16;;;;;;;9.20;7.40;;;;;;;23.36;64.13;99152.45;140579;1245;22519;-85
2023/08/17 00:11:17;;;;;;;12.80;7.60;;;;;;;23.29;64.36;99150.01;141084;1246;22355;-85
2023/08/17 00:14:18;;;;;;;7.80;7.10;;;;;;;23.22;64.51;99152.02;140551;1246;22445;-84
2023/08/17 00:17:19;;;;;;;13.30;7.60;;;;;;;23.17;64.90;99149.55;140194;1245;22514;-84
2023/08/17 00:20:20;;;;;;;9.00;7.70;;;;;;;23.13;65.06;99152.18;140681;1246;22531;-86
2023/08/17 00:23:21;;;;;;;11.10;7.70;;;;;;;23.09;65.27;99152.48;140614;1246;22466;-85
2023/08/17 00:26:22;;;;;;;11.30;7.60;;;;;;;23.05;65.38;99153.50;140332;1246;22534;-84
2023/08/17 00:29:27;;;;;;;10.80;7.40;;;;;;;23.01;65.69;99156.48;140621;1246;22515;-84
2023/08/17 00:32:28;;;;;;;12.60;7.70;;;;;;;22.97;65.80;99152.37;140855;1245;25286;-84
2023/08/17 00:35:29;;;;;;;12.80;7.30;;;;;;;22.93;66.11;99150.38;140331;1246;22406;-84
2023/08/17 00:38:30;;;;;;;10.00;8.20;;;;;;;22.89;66.37;99146.42;140414;1245;24202;-83
2023/08/17 00:41:31;;;;;;;14.50;8.00;;;;;;;22.85;66.69;99147.95;141085;1245;22373;-84
2023/08/17 00:44:32;;;;;;;16.00;8.80;;;;;;;22.82;66.77;99151.25;140417;1246;22844;-85
2023/08/17 00:47:34;;;;;;;8.70;7.60;;;;;;;22.80;66.90;99153.97;140437;1245;23041;-83
2023/08/17 00:50:35;;;;;;;19.90;10.10;;;;;;;22.78;67.12;99153.65;140951;1246;22375;-84
2023/08/17 00:53:36;;;;;;;9.80;8.30;;;;;;;22.75;67.32;99151.10;140396;1246;22538;-85
2023/08/17 00:56:37;;;;;;;37.90;9.30;;;;;;;22.72;67.31;99147.13;140467;1246;22533;-85
2023/08/17 00:59:38;;;;;;;11.90;8.00;;;;;;;22.70;67.64;99150.03;140737;1246;25379;-84
2023/08/17 01:02:39;;;;;;;20.50;8.60;;;;;;;22.70;67.82;99157.13;140504;1246;22905;-84
2023/08/17 01:05:41;;;;;;;16.80;8.70;;;;;;;22.69;67.87;99156.63;140452;1246;22417;-86
2023/08/17 01:08:42;;;;;;;106.90;20.40;;;;;;;22.66;68.11;99161.85;140688;1243;25219;-87
2023/08/17 01:11:43;;;;;;;19.70;9.20;;;;;;;22.65;68.17;99159.42;140747;1245;22355;-83
2023/08/17 01:14:45;;;;;;;12.00;8.30;;;;;;;22.62;68.32;99160.23;140447;1245;22378;-83
2023/08/17 01:17:46;;;;;;;9.50;8.30;;;;;;;22.57;68.51;99162.67;140376;1245;22507;-84
2023/08/17 01:20:47;;;;;;;12.90;8.80;;;;;;;22.52;68.79;99164.23;140810;1246;22497;-84
2023/08/17 01:23:48;;;;;;;12.70;8.60;;;;;;;22.48;69.07;99169.14;140634;1246;22417;-84
2023/08/17 01:26:49;;;;;;;29.30;9.60;;;;;;;22.45;69.54;99166.39;140459;1242;22538;-84
2023/08/17 01:29:52;;;;;;;11.30;8.40;;;;;;;22.40;69.61;99165.50;140850;1242;22605;-84
2023/08/17 01:32:57;;;;;;;10.40;8.80;;;;;;;22.36;69.86;99164.74;140306;1245;22546;-83
2023/08/17 01:35:58;;;;;;;11.00;9.00;;;;;;;22.34;70.26;99167.27;140323;1245;22551;-83
2023/08/17 01:39:00;;;;;;;11.80;8.40;;;;;;;22.29;70.80;99156.44;140995;1243;22387;-83
2023/08/17 01:42:03;;;;;;;17.60;9.40;;;;;;;22.28;70.71;99158.59;140407;1245;22527;-83
2023/08/17 01:45:04;;;;;;;9.80;8.10;;;;;;;22.28;70.63;99156.65;140373;1245;22352;-83
2023/08/17 01:48:08;;;;;;;79.60;16.10;;;;;;;22.27;70.61;99156.15;140915;1242;22466;-81
2023/08/17 01:51:09;;;;;;;22.90;9.40;;;;;;;22.28;70.71;99156.47;140620;1245;22409;-85
2023/08/17 01:54:11;;;;;;;33.30;10.40;;;;;;;22.29;70.89;99164.77;140192;1245;22405;-85
2023/08/17 01:57:15;;;;;;;19.50;9.10;;;;;;;22.25;70.95;99162.05;140610;1237;22586;-86
2023/08/17 02:00:16;;;;;;;64.60;13.00;;;;;;;22.22;70.99;99165.33;140702;1245;22540;-84
2023/08/17 02:03:17;;;;;;;12.70;9.30;;;;;;;22.30;71.53;99159.58;140459;1245;22403;-84
2023/08/17 02:06:18;;;;;;;10.10;8.20;;;;;;;22.29;71.34;99156.61;140399;1246;22531;-82
2023/08/17 02:09:19;;;;;;;10.30;8.10;;;;;;;22.20;71.53;99156.34;140969;1245;22749;-82
2023/08/17 02:12:20;;;;;;;9.80;8.70;;;;;;;22.10;71.65;99153.27;140528;1243;22390;-83
2023/08/17 02:15:21;;;;;;;12.10;9.10;;;;;;;22.07;71.89;99145.94;140395;1245;22523;-83
2023/08/17 02:18:22;;;;;;;11.30;9.70;;;;;;;22.07;72.32;99141.33;141017;1245;22404;-83
2023/08/17 02:21:23;;;;;;;209.20;21.90;;;;;;;22.04;72.80;99149.73;140134;1245;22894;-83
2023/08/17 02:24:25;;;;;;;39.60;11.40;;;;;;;22.00;73.20;99159.08;140270;1243;22483;-82
2023/08/17 02:27:26;;;;;;;12.30;9.50;;;;;;;21.92;73.47;99166.73;140804;1240;22515;-82
2023/08/17 02:30:27;;;;;;;10.10;8.90;;;;;;;21.88;73.53;99167.55;140555;1245;22483;-83
2023/08/17 02:33:28;;;;;;;22.90;10.40;;;;;;;21.87;73.59;99165.64;140380;1245;22601;-84
2023/08/17 02:36:31;;;;;;;67.60;12.80;;;;;;;21.90;73.81;99171.92;140581;1246;25449;-83
2023/08/17 02:39:32;;;;;;;38.70;11.60;;;;;;;21.92;74.05;99181.42;140744;1245;22341;-83
2023/08/17 02:42:34;;;;;;;14.80;8.80;;;;;;;21.89;74.06;99183.28;140450;1246;22375;-82
2023/08/17 02:45:35;;;;;;;11.40;9.20;;;;;;;21.86;74.33;99184.79;140466;1245;22519;-83
2023/08/17 02:48:36;;;;;;;13.20;8.90;;;;;;;21.83;74.36;99179.39;140856;1243;22366;-83
2023/08/17 02:51:37;;;;;;;11.40;8.50;;;;;;;21.81;74.54;99186.35;140385;1246;22486;-83
2023/08/17 02:54:38;;;;;;;12.90;8.70;;;;;;;21.80;74.70;99187.98;140356;1245;22506;-81
2023/08/17 02:57:40;;;;;;;14.80;9.10;;;;;;;21.78;74.81;99192.65;140628;1246;25574;-83
2023/08/17 03:00:41;;;;;;;11.90;8.90;;;;;;;21.75;74.88;99194.85;139909;1246;22516;-82
2023/08/17 03:03:42;;;;;;;10.00;9.00;;;;;;;21.74;74.82;99203.91;140431;1246;22537;-84
2023/08/17 03:06:43;;;;;;;10.20;9.20;;;;;;;21.72;74.85;99203.08;140389;1246;22492;-82
2023/08/17 03:09:44;;;;;;;11.40;9.50;;;;;;;21.71;74.94;99201.86;140160;1246;22730;-82
2023/08/17 03:12:45;;;;;;;10.40;9.30;;;;;;;21.71;74.89;99201.52;140988;1243;22394;-82
2023/08/17 03:15:46;;;;;;;92.20;18.00;;;;;;;21.73;74.98;99201.98;140747;1246;22365;-83
2023/08/17 03:18:48;;;;;;;13.40;9.70;;;;;;;21.76;74.80;99211.13;140577;1246;22539;-82
2023/08/17 03:21:49;;;;;;;17.40;9.40;;;;;;;21.76;74.91;99208.64;140744;1246;25912;-83
2023/08/17 03:24:50;;;;;;;12.30;9.60;;;;;;;21.77;74.89;99204.72;140599;1246;22874;-82
2023/08/17 03:27:56;;;;;;;51.00;12.70;;;;;;;21.78;74.82;99202.89;140508;1245;22447;-82
2023/08/17 03:30:57;;;;;;;16.90;10.20;;;;;;;21.79;74.85;99200.95;140901;1246;22543;-83
2023/08/17 03:34:00;;;;;;;11.40;9.70;;;;;;;21.81;74.99;99202.64;140768;1246;22417;-82
2023/08/17 03:37:01;;;;;;;16.10;9.20;;;;;;;21.83;74.95;99197.64;140329;1245;22500;-81
2023/08/17 03:40:02;;;;;;;16.50;9.10;;;;;;;21.84;75.14;99203.27;140756;1246;22558;-80
2023/08/17 03:43:03;;;;;;;50.80;12.20;;;;;;;21.86;75.04;99207.65;140818;1246;22535;-82
2023/08/17 03:46:05;;;;;;;107.90;15.00;;;;;;;21.88;75.30;99213.77;140384;1246;22383;-82
2023/08/17 03:49:07;;;;;;;94.30;16.40;;;;;;;21.88;75.23;99213.25;140517;1246;22578;-82
2023/08/17 03:52:08;;;;;;;13.10;9.00;;;;;;;21.88;75.37;99214.14;141051;1246;22372;-81
2023/08/17 03:55:09;;;;;;;30.90;10.50;;;;;;;21.87;75.49;99217.36;141021;1246;22290;-80
2023/08/17 03:58:10;;;;;;;75.20;13.70;;;;;;;21.86;75.57;99215.08;140565;1246;23213;-81
2023/08/17 04:01:13;;;;;;;222.50;25.20;;;;;;;21.84;75.78;99213.89;140863;1246;22388;-82
2023/08/17 04:04:14;;;;;;;170.90;20.50;;;;;;;21.81;75.78;99213.27;140727;1246;22412;-82
2023/08/17 04:07:15;;;;;;;50.10;11.60;;;;;;;21.83;75.87;99216.77;140618;1246;22414;-81
2023/08/17 04:10:16;;;;;;;94.00;15.00;;;;;;;21.86;75.99;99219.70;140934;1246;22550;-81
2023/08/17 04:13:17;;;;;;;29.10;11.00;;;;;;;21.90;76.09;99221.35;140749;1246;22413;-82
2023/08/17 04:16:19;;;;;;;103.90;14.50;;;;;;;21.92;76.18;99225.54;140678;1246;22376;-82
2023/08/17 04:19:20;;;;;;;12.80;9.80;;;;;;;21.94;76.23;99231.16;140835;1246;22873;-82
2023/08/17 04:22:21;;;;;;;76.90;13.80;;;;;;;21.94;76.35;99233.80;140708;1246;22434;-81
2023/08/17 04:25:22;;;;;;;28.40;11.00;;;;;;;21.93;76.59;99231.90;140609;1246;22389;-82
2023/08/17 04:28:24;;;;;;;233.90;24.20;;;;;;;21.91;76.80;99231.22;140606;1246;22779;-84
2023/08/17 04:31:26;;;;;;;114.30;17.50;;;;;;;21.92;77.03;99233.68;140842;1246;22434;-81
2023/08/17 04:34:27;;;;;;;20.00;11.10;;;;;;;21.94;76.72;99241.80;140545;1246;22229;-83
2023/08/17 04:37:28;;;;;;;11.20;10.00;;;;;;;21.98;77.33;99240.45;140472;1246;22604;-82
2023/08/17 04:40:29;;;;;;;12.50;9.30;;;;;;;21.95;77.50;99239.98;140989;1246;22542;-84
2023/08/17 04:43:30;;;;;;;116.00;14.40;;;;;;;21.92;77.76;99234.92;140522;1245;22578;-82
2023/08/17 04:46:32;;;;;;;61.30;13.30;;;;;;;21.90;78.21;99237.82;140400;1242;23076;-80
2023/08/17 04:49:33;;;;;;;287.00;27.20;;;;;;;21.92;78.24;99237.75;141044;1246;22722;-80
2023/08/17 04:52:34;;;;;;;15.50;10.20;;;;;;;21.97;78.74;99236.92;140321;1245;22374;-79
2023/08/17 04:55:35;;;;;;;33.20;11.50;;;;;;;21.96;79.04;99235.71;140661;1246;22391;-79
2023/08/17 04:58:36;;;;;;;56.50;44.70;;;;;;;22.00;79.01;99234.19;140901;1246;22789;-80
2023/08/17 05:01:38;;;;;;;36.90;15.30;;;;;;;22.03;79.38;99236.42;140694;1245;23792;-81
2023/08/17 05:04:39;;;;;;;22.90;10.90;;;;;;;22.03;79.70;99239.79;141026;1246;23101;-81
2023/08/17 05:07:40;;;;;;;11.60;9.80;;;;;;;22.04;79.80;99247.91;140817;1246;22554;-80
2023/08/17 05:10:42;;;;;;;21.60;10.50;;;;;;;22.07;79.98;99248.54;140901;1246;22831;-83
2023/08/17 05:13:43;;;;;;;18.00;9.80;;;;;;;22.14;80.00;99254.73;140381;1246;22372;-81
2023/08/17 05:16:44;;;;;;;13.80;9.70;;;;;;;22.18;79.37;99254.08;140639;1246;22542;-84
2023/08/17 05:19:45;;;;;;;13.00;10.10;;;;;;;22.19;79.03;99255.12;140785;1245;22358;-81
2023/08/17 05:22:46;;;;;;;16.40;10.20;;;;;;;22.32;80.12;99254.21;140802;1245;22212;-83
2023/08/17 05:25:48;;;;;;;891.50;96.20;;;;;;;22.85;79.23;99250.70;140806;1245;22501;-85
2023/08/17 05:28:49;;;;;;;578.10;58.90;;;;;;;23.20;77.30;99252.59;141000;1246;22440;-83
2023/08/17 05:31:50;;;;;;;58.00;13.00;;;;;;;23.40;76.60;99251.77;140689;1246;22527;-83
2023/08/17 05:34:51;;;;;;;26.00;11.80;;;;;;;23.64;75.67;99250.98;140547;1245;22521;-83
2023/08/17 05:37:52;;;;;;;64.70;14.30;;;;;;;23.87;74.93;99250.89;141069;1246;22307;-83
2023/08/17 05:40:53;;;;;;;39.30;12.00;;;;;;;24.07;73.99;99250.14;140631;1245;22956;-83
2023/08/17 05:43:55;;;;;;;27.00;11.70;;;;;;;24.22;73.61;99249.95;140730;1246;24158;-84
2023/08/17 05:46:56;;;;;;;17.40;10.50;;;;;;;24.37;72.79;99249.45;140784;1245;22419;-83
2023/08/17 05:49:57;;;;;;;30.10;19.60;;;;;;;24.46;72.48;99251.96;141005;1245;22277;-82
2023/08/17 05:52:58;;;;;;;31.10;14.80;;;;;;;24.56;72.67;99252.12;141006;1246;22279;-83
2023/08/17 05:55:59;;;;;;;106.40;38.50;;;;;;;24.66;71.66;99256.16;141028;1246;22899;-83
2023/08/17 05:59:00;;;;;;;24.70;11.10;;;;;;;24.70;70.92;99247.83;141086;1246;22769;-84
2023/08/17 06:02:01;;;;;;;18.30;11.20;;;;;;;24.69;70.45;99248.75;140642;1246;22357;-84
2023/08/17 06:05:03;;;;;;;19.80;10.20;;;;;;;24.71;70.14;99251.34;140821;1245;25972;-84
2023/08/17 06:08:04;;;;;;;14.60;10.10;;;;;;;24.84;69.73;99251.36;140615;1245;22226;-84
2023/08/17 06:11:06;;;;;;;70.80;13.60;;;;;;;24.92;69.06;99254.95;140551;1246;22414;-85
2023/08/17 06:14:07;;;;;;;89.10;15.90;;;;;;;24.94;69.27;99252.94;140913;1246;22572;-85
2023/08/17 06:17:10;;;;;;;97.40;17.10;;;;;;;25.11;68.87;99261.70;140904;1246;22389;-85
2023/08/17 06:20:12;;;;;;;35.80;11.10;;;;;;;25.27;68.22;99266.60;140621;1246;22358;-86
2023/08/17 06:23:13;;;;;;;75.90;14.50;;;;;;;25.27;67.09;99266.23;140904;1245;22723;-84
2023/08/17 06:26:14;;;;;;;153.20;18.80;;;;;;;25.34;67.84;99266.27;141028;1246;22766;-83
2023/08/17 06:29:15;;;;;;;43.60;12.00;;;;;;;25.51;66.65;99270.02;140613;1246;22958;-82
2023/08/17 06:32:16;;;;;;;50.70;11.50;;;;;;;25.55;65.68;99261.48;140639;1242;22549;-82
2023/08/17 06:35:19;;;;;;;28.60;10.20;;;;;;;25.68;65.21;99261.31;140621;1242;22430;-83
2023/08/17 06:38:21;;;;;;;28.40;11.50;;;;;;;25.90;64.50;99255.52;141007;1246;22304;-84
2023/08/17 06:41:22;;;;;;;148.50;22.40;;;;;;;26.06;64.08;99253.09;141044;1246;22616;-82
2023/08/17 06:44:23;;;;;;;59.20;13.80;;;;;;;26.33;63.74;99252.38;141036;1243;22247;-84
2023/08/17 06:47:24;;;;;;;46.80;12.30;;;;;;;26.49;63.14;99249.36;141018;1242;22274;-83
2023/08/17 06:50:26;;;;;;;37.80;12.50;;;;;;;26.66;63.36;99251.94;141028;1245;22833;-84
2023/08/17 06:53:27;;;;;;;18.60;10.20;;;;;;;26.85;62.57;99258.52;141053;1246;22266;-83
2023/08/17 06:56:28;;;;;;;16.10;9.10;;;;;;;26.89;62.53;99264.97;140975;1246;22417;-83
2023/08/17 06:59:30;;;;;;;11.00;8.40;;;;;;;26.96;62.19;99260.90;141069;1246;23169;-84
2023/08/17 07:02:31;;;;;;;13.50;9.70;;;;;;;27.00;61.94;99261.45;141051;1246;22369;-84
2023/08/17 07:05:32;;;;;;;15.80;9.90;;;;;;;27.14;61.66;99258.43;140630;1242;22370;-83
2023/08/17 07:08:33;;;;;;;51.10;11.50;;;;;;;27.37;61.45;99258.55;141018;1246;22296;-83
2023/08/17 07:11:36;;;;;;;44.30;10.70;;;;;;;27.58;61.20;99259.27;141025;1246;22322;-84
2023/08/17 07:14:37;;;;;;;99.30;15.80;;;;;;;27.72;60.57;99258.23;141052;1246;22305;-84
2023/08/17 07:17:40;;;;;;;46.80;12.40;;;;;;;27.77;59.69;99251.17;140919;1246;22502;-84
2023/08/17 07:20:41;;;;;;;25.10;10.40;;;;;;;27.75;59.94;99250.59;140899;1246;22393;-84
2023/08/17 07:23:42;;;;;;;62.30;14.40;;;;;;;27.79;59.63;99249.65;141055;1246;22401;-84
2023/08/17 07:26:44;;;;;;;103.00;16.40;;;;;;;27.76;59.00;99252.11;140797;1246;22519;-83
2023/08/17 07:29:45;;;;;;;49.50;13.50;;;;;;;27.75;58.49;99251.85;140223;1246;23145;-83
2023/08/17 07:32:46;;;;;;;94.60;17.10;;;;;;;27.69;58.47;99252.64;140886;1246;22399;-83
2023/08/17 07:35:47;;;;;;;70.70;13.10;;;;;;;27.57;58.46;99259.29;141156;1246;22219;-82
2023/08/17 07:38:49;;;;;;;27.40;11.20;;;;;;;27.47;58.92;99258.04;141000;1246;22887;-85
2023/08/17 07:41:50;;;;;;;430.10;33.10;;;;;;;27.44;59.50;99260.86;141207;1246;22251;-82
2023/08/17 07:44:51;;;;;;;236.00;26.60;;;;;;;27.44;61.01;99259.44;141136;1246;22586;-85
2023/08/17 07:47:52;;;;;;;573.60;49.90;;;;;;;27.50;62.83;99260.04;140963;1246;22377;-84
2023/08/17 07:50:54;;;;;;;212.70;23.00;;;;;;;27.49;63.36;99258.45;140789;1246;22461;-83
2023/08/17 07:53:55;;;;;;;274.90;29.40;;;;;;;27.48;63.26;99259.58;140992;1246;22338;-83
2023/08/17 07:56:56;;;;;;;85.30;14.10;;;;;;;27.53;63.26;99254.35;140953;1240;22375;-84
2023/08/17 07:59:57;;;;;;;193.00;22.30;;;;;;;27.57;62.57;99249.84;141208;1245;22290;-82
2023/08/17 08:02:58;;;;;;;18.70;9.60;;;;;;;27.65;62.37;99249.30;141171;1246;22291;-83
2023/08/17 08:06:16;;;;;;;119.90;40.60;;;;;;;27.72;61.94;99250.70;141178;1243;22245;-84
2023/08/17 08:09:17;;;;;;;82.20;18.00;;;;;;;27.74;61.31;99261.88;140648;1246;23103;-84
2023/08/17 08:12:19;;;;;;;18.20;9.80;;;;;;;27.75;61.87;99269.33;141028;1246;22193;-84
2023/08/17 08:15:20;;;;;;;106.00;17.10;;;;;;;27.74;61.66;99268.15;140799;1246;22376;-83
2023/08/17 08:18:22;;;;;;;15.00;9.00;;;;;;;27.65;62.05;99273.44;141090;1246;22280;-82
2023/08/17 08:21:23;;;;;;;67.00;11.80;;;;;;;27.64;62.53;99277.07;141108;1246;23075;-83
2023/08/17 08:24:25;;;;;;;84.30;16.00;;;;;;;27.64;62.47;99279.91;140980;1246;22814;-79
2023/08/17 08:27:26;;;;;;;50.80;11.70;;;;;;;27.59;62.53;99273.86;141054;1244;22867;-83
2023/08/17 08:30:28;;;;;;;148.80;21.10;;;;;;;27.59;62.61;99271.52;141007;1246;22226;-82
2023/08/17 08:33:29;;;;;;;100.60;16.00;;;;;;;27.54;62.90;99270.55;141034;1246;23304;-82
2023/08/17 08:36:30;;;;;;;28.00;10.10;;;;;;;27.48;63.58;99275.30;141021;1243;22300;-83
2023/08/17 08:39:31;;;;;;;657.20;76.10;;;;;;;27.50;63.37;99280.06;140424;1246;22886;-83
2023/08/17 08:42:33;;;;;;;29.60;12.00;;;;;;;27.52;63.54;99279.56;140699;1246;215014;-82
2023/08/17 08:45:34;;;;;;;38.10;11.20;;;;;;;27.60;63.12;99275.42;141054;1246;22315;-83
2023/08/17 08:48:36;;;;;;;16.30;8.60;;;;;;;27.49;62.56;99271.17;140476;1246;22947;-81
2023/08/17 08:51:37;;;;;;;137.80;20.20;;;;;;;27.33;63.93;99267.52;140701;1246;22385;-81
2023/08/17 08:54:38;;;;;;;123.60;18.70;;;;;;;27.43;64.20;99263.95;141018;1243;22659;-81
2023/08/17 08:57:39;;;;;;;273.90;27.50;;;;;;;27.53;63.91;99259.54;140616;1246;23092;-82
2023/08/17 09:00:41;;;;;;;126.90;17.20;;;;;;;27.55;64.43;99252.60;141104;1246;22308;-82
2023/08/17 09:03:42;;;;;;;16.40;9.80;;;;;;;27.64;63.80;99253.06;141104;1246;22370;-81
2023/08/17 09:06:43;;;;;;;35.60;12.20;;;;;;;27.64;62.54;99256.66;140708;1246;22378;-82
2023/08/17 09:09:47;;;;;;;14.90;10.00;;;;;;;28.08;62.93;99257.44;140972;1246;22521;-82
2023/08/17 09:12:49;;;;;;;17.10;10.60;;;;;;;28.47;59.90;99247.48;140860;1246;22915;-83
2023/08/17 09:15:50;;;;;;;18.50;11.20;;;;;;;28.67;58.65;99245.67;140674;1246;22390;-83
2023/08/17 09:18:51;;;;;;;195.50;26.80;;;;;;;29.06;58.32;99238.85;140642;1246;25224;-83
2023/08/17 09:21:53;;;;;;;551.10;69.50;;;;;;;29.35;56.40;99237.51;140872;1246;22373;-83
2023/08/17 09:24:54;;;;;;;109.50;19.20;;;;;;;29.25;55.61;99239.33;140344;1246;22352;-83
2023/08/17 09:27:55;;;;;;;44.70;15.30;;;;;;;29.24;53.65;99243.00;140723;1244;22531;-82
2023/08/17 09:30:56;;;;;;;11.80;9.40;;;;;;;29.22;53.72;99246.17;140799;1246;22447;-84
2023/08/17 09:33:58;;;;;;;19.40;10.10;;;;;;;28.97;55.01;99245.03;141139;1246;22250;-80
2023/08/17 09:36:59;;;;;;;14.90;10.20;;;;;;;28.75;56.19;99243.80;141088;1246;22854;-82
2023/08/17 09:40:00;;;;;;;247.30;28.60;;;;;;;28.90;56.00;99248.36;140879;1246;22308;-81
2023/08/17 09:43:01;;;;;;;23.80;9.60;;;;;;;29.01;56.21;99243.23;140625;1246;22390;-82
2023/08/17 09:46:03;;;;;;;17.30;10.00;;;;;;;29.22;56.17;99240.77;140563;1246;22549;-80
2023/08/17 09:49:05;;;;;;;74.80;14.30;;;;;;;29.54;56.22;99238.20;140733;1245;22982;-83
2023/08/17 09:52:08;;;;;;;78.80;14.60;;;;;;;29.95;55.41;99238.80;140505;1246;22592;-84
2023/08/17 09:55:09;;;;;;;11.50;8.30;;;;;;;30.19;53.94;99239.46;140760;1246;22468;-82
2023/08/17 09:58:14;;;;;;;24.60;8.90;;;;;;;30.32;53.47;99242.25;140648;1241;22900;-83
2023/08/17 10:12:02;;;;;;;46.50;12.40;;;;;;;31.52;46.45;99231.29;133559;1297;557647;-78
2023/08/17 10:15:05;;;;;;;29.00;9.10;;;;;;;31.52;45.86;99231.48;135445;1288;279685;-82
2023/08/17 10:18:08;;;;;;;60.20;9.70;;;;;;;31.64;45.95;99228.27;136203;1288;22212;-82
2023/08/17 10:21:13;;;;;;;31.70;8.50;;;;;;;31.75;45.12;99221.27;136170;1288;22679;-81
2023/08/17 10:24:16;;;;;;;8.70;5.50;;;;;;;31.88;44.34;99221.44;136479;1287;22285;-82
2023/08/17 10:27:19;;;;;;;17.60;7.30;;;;;;;31.93;43.53;99218.21;136155;1288;22335;-83
2023/08/17 10:30:21;;;;;;;10.50;6.30;;;;;;;31.65;41.88;99215.78;136846;1274;22246;-83
2023/08/17 10:33:24;;;;;;;22.50;6.90;;;;;;;31.72;43.75;99215.90;137125;1278;22550;-82
2023/08/17 10:36:26;;;;;;;178.80;17.90;;;;;;;31.87;42.59;99211.40;137259;1275;22200;-83
2023/08/17 10:39:29;;;;;;;18.30;6.90;;;;;;;31.75;42.55;99212.45;137282;1275;22296;-83
2023/08/17 10:42:32;;;;;;;135.70;112.40;;;;;;;31.78;43.58;99216.18;137364;1276;22577;-83
2023/08/17 10:45:36;;;;;;;49.00;9.70;;;;;;;31.92;44.26;99216.29;137258;1276;22179;-85
2023/08/17 10:48:38;;;;;;;20.50;8.10;;;;;;;32.14;43.48;99211.86;137194;1275;22086;-82
2023/08/17 10:51:41;;;;;;;17.30;7.90;;;;;;;32.24;42.30;99209.40;136763;1275;22136;-82
2023/08/17 10:54:43;;;;;;;9.60;6.10;;;;;;;32.19;43.36;99218.73;137208;1265;22256;-82
2023/08/17 10:57:46;;;;;;;14.90;7.10;;;;;;;32.14;42.20;99218.69;137226;1275;22188;-83
2023/08/17 11:00:48;;;;;;;5.70;5.20;;;;;;;31.84;41.16;99217.72;137308;1275;22161;-83
2023/08/17 11:03:51;;;;;;;8.70;6.20;;;;;;;31.77;43.15;99224.56;137247;1275;22333;-83
2023/08/17 11:06:53;;;;;;;7.30;5.50;;;;;;;32.04;43.81;99223.21;137200;1276;22193;-84
2023/08/17 11:09:56;;;;;;;10.40;6.00;;;;;;;32.33;40.93;99220.83;137186;1275;22837;-83
2023/08/17 11:13:01;;;;;;;;;;;;;;;32.07;39.49;99226.95;137194;1276;22370;-83
2023/08/17 11:16:03;;;;;;;10.70;5.50;;;;;;;31.94;39.41;99226.41;137186;1276;22302;-83
2023/08/17 11:19:07;;;;;;;11.10;5.70;;;;;;;31.98;40.04;99223.77;137218;1265;22161;-83
2023/08/17 11:22:09;;;;;;;7.70;5.10;;;;;;;32.36;41.34;99220.60;137173;1276;22196;-83
2023/08/17 11:25:13;;;;;;;6.80;5.70;;;;;;;32.68;40.38;99218.27;137166;1276;22618;-84
2023/08/17 11:28:15;;;;;;;52.30;9.50;;;;;;;32.92;37.46;99216.94;137168;1276;22254;-84
2023/08/17 11:31:18;;;;;;;;;;;;;;;32.59;35.68;99220.58;137150;1276;22286;-83
2023/08/17 11:34:21;;;;;;;13.40;5.10;;;;;;;32.47;35.76;99219.30;137120;1276;22267;-84
2023/08/17 11:37:24;;;;;;;27.00;5.90;;;;;;;32.65;36.73;99219.55;137131;1276;22243;-83
2023/08/17 11:40:26;;;;;;;6.90;4.20;;;;;;;32.91;36.78;99216.41;137126;1276;22190;-84
2023/08/17 11:43:31;;;;;;;;;;;;;;;33.00;36.99;99211.12;137172;1276;22347;-84
2023/08/17 11:46:34;;;;;;;18.50;5.70;;;;;;;32.94;35.08;99211.00;137175;1276;22197;-82
2023/08/17 11:49:37;;;;;;;14.60;5.30;;;;;;;32.43;35.81;99212.71;137183;1276;22227;-83
2023/08/17 11:52:39;;;;;;;16.90;5.60;;;;;;;32.61;36.28;99213.89;137188;1276;22694;-83
2023/08/17 11:55:45;;;;;;;15.40;4.50;;;;;;;32.81;36.53;99209.92;137193;1276;22222;-83
2023/08/17 11:58:47;;;;;;;6.50;4.30;;;;;;;33.02;36.14;99205.34;137053;1269;22566;-84
2023/08/17 12:02:21;;;;;;;6.70;3.90;;;;;;;33.08;35.59;99207.98;133159;1301;544988;-83
2023/08/17 12:05:27;;;;;;;6.80;4.10;;;;;;;32.89;35.57;99210.05;136483;1283;22141;-82
2023/08/17 12:08:33;;;;;;;15.50;3.50;;;;;;;32.89;34.38;99212.05;136531;1283;22725;-83
2023/08/17 12:11:36;;;;;;;10.00;3.50;;;;;;;32.81;34.60;99210.86;136350;1283;22453;-83
2023/08/17 12:14:39;;;;;;;6.70;3.30;;;;;;;33.05;34.61;99208.00;136415;1281;199122;-84
2023/08/17 12:17:41;;;;;;;7.60;3.30;;;;;;;33.23;34.23;99197.82;136694;1281;22237;-83
2023/08/17 12:20:44;;;;;;;9.40;3.50;;;;;;;33.25;34.57;99197.49;136680;1281;22296;-82
2023/08/17 12:23:46;;;;;;;;;;;;;;;33.24;34.12;99187.09;136615;1281;22358;-82
2023/08/17 12:26:49;;;;;;;6.50;3.70;;;;;;;33.12;35.37;99189.46;137082;1276;22923;-82
2023/08/17 12:29:52;;;;;;;;;;;;;;;33.33;35.37;99192.91;137106;1276;22999;-82
2023/08/17 12:32:57;;;;;;;15.30;13.60;;;;;;;33.44;34.74;99185.96;137020;1276;22229;-83
2023/08/17 12:36:00;;;;;;;;;;;;;;;33.05;32.06;99192.31;137157;1277;22862;-83
2023/08/17 12:39:03;;;;;;;14.30;6.80;;;;;;;32.89;34.82;99189.70;137099;1276;22213;-83
2023/08/17 12:42:06;;;;;;;10.80;6.00;;;;;;;33.08;35.59;99188.88;137219;1274;22514;-84
2023/08/17 12:45:09;;;;;;;;;;;;;;;33.38;35.30;99188.98;137194;1274;23102;-83
2023/08/17 12:48:11;;;;;;;8.80;4.70;;;;;;;33.61;35.93;99190.45;137214;1274;22225;-83
2023/08/17 12:51:14;;;;;;;;;;;;;;;33.79;34.97;99191.56;137312;1274;22363;-85
2023/08/17 12:54:19;;;;;;;42.90;7.40;;;;;;;33.66;35.28;99190.36;137369;1274;22221;-82
2023/08/17 12:57:22;;;;;;;5.50;4.10;;;;;;;33.85;35.30;99185.32;137149;1275;22540;-81
2023/08/17 13:00:25;;;;;;;6.20;3.20;;;;;;;34.01;34.95;99181.21;137351;1274;22208;-83
2023/08/17 13:03:27;;;;;;;;;;;;;;;34.24;35.17;99172.09;137362;1275;22511;-81
2023/08/17 13:06:30;;;;;;;5.50;3.70;;;;;;;34.50;34.92;99174.39;137314;1275;22996;-82
2023/08/17 13:09:32;;;;;;;19.20;4.70;;;;;;;34.65;34.50;99177.28;137128;1274;22493;-81
2023/08/17 13:12:35;;;;;;;;;;;;;;;34.85;34.48;99179.11;137327;1274;22373;-81
2023/08/17 13:15:37;;;;;;;51.90;9.50;;;;;;;35.08;33.87;99180.44;137327;1275;22654;-81
2023/08/17 13:18:40;;;;;;;9.80;4.80;;;;;;;35.28;33.65;99178.20;137290;1267;22197;-81
2023/08/17 13:21:42;;;;;;;;;;;;;;;35.40;33.38;99179.89;137303;1275;22294;-81
2023/08/17 13:24:45;;;;;;;6.60;3.60;;;;;;;35.42;33.05;99184.48;137284;1274;22657;-81
2023/08/17 13:27:47;;;;;;;15.50;3.90;;;;;;;35.51;32.94;99176.14;137285;1274;22169;-79
2023/08/17 13:30:50;;;;;;;5.60;3.30;;;;;;;35.46;32.78;99174.02;137237;1274;22328;-81
2023/08/17 13:33:52;;;;;;;;;;;;;;;35.23;32.20;99176.15;137298;1275;22340;-80
2023/08/17 13:36:55;;;;;;;8.40;3.40;;;;;;;35.03;33.08;99173.98;137327;1274;22730;-81
2023/08/17 13:39:58;;;;;;;;;;;;;;;34.95;33.42;99174.48;137300;1274;22300;-80
2023/08/17 13:43:00;;;;;;;;;;;;;;;34.85;32.80;99174.27;137322;1275;22846;-81
2023/08/17 13:46:03;;;;;;;8.80;3.60;;;;;;;34.64;32.74;99173.94;137303;1275;22599;-81
2023/08/17 13:49:05;;;;;;;40.40;5.60;;;;;;;34.38;32.85;99171.16;137284;1275;22239;-81
2023/08/17 13:52:08;;;;;;;;;;;;;;;34.20;32.92;99164.15;137325;1274;22316;-81
2023/08/17 13:55:10;;;;;;;7.20;3.30;;;;;;;34.09;33.50;99162.13;137380;1270;22212;-81
2023/08/17 13:58:13;;;;;;;7.60;3.50;;;;;;;33.97;33.80;99161.09;137354;1274;22503;-81
2023/08/17 14:01:16;;;;;;;10.20;3.60;;;;;;;33.89;33.64;99160.52;137322;1274;22151;-82
2023/08/17 14:04:19;;;;;;;8.80;3.60;;;;;;;33.76;34.19;99162.02;137324;1274;22424;-83
2023/08/17 14:07:21;;;;;;;4.80;3.10;;;;;;;33.68;34.42;99157.05;137359;1274;22184;-81